createdAt,value
2019-04-25T00:00:06.000Z,0.00
2019-04-25T00:01:05.964Z,0.00
2019-04-25T00:02:05.935Z,0.00
2019-04-25T00:03:05.896Z,0.00
2019-04-25T00:04:05.866Z,0.00
2019-04-25T00:05:05.829Z,0.00
2019-04-25T00:06:05.811Z,0.00
2019-04-25T00:07:05.760Z,0.00
2019-04-25T00:08:05.725Z,0.00
2019-04-25T00:09:05.713Z,0.00
2019-04-25T00:10:05.658Z,0.00
2019-04-25T00:11:05.624Z,0.00
2019-04-25T00:12:05.589Z,0.00
2019-04-25T00:13:05.559Z,0.00
2019-04-25T00:14:05.539Z,0.00
2019-04-25T00:15:05.494Z,0.00
2019-04-25T00:16:05.456Z,0.00
2019-04-25T00:17:05.424Z,0.00
2019-04-25T00:18:05.390Z,0.00
2019-04-25T00:19:05.359Z,0.00
2019-04-25T00:20:05.320Z,0.00
2019-04-25T00:21:05.290Z,0.00
2019-04-25T00:22:05.263Z,0.00
2019-04-25T00:23:05.229Z,0.00
2019-04-25T00:24:05.194Z,0.00
2019-04-25T00:25:15.020Z,0.00
2019-04-25T00:26:05.124Z,0.00
2019-04-25T00:27:05.095Z,0.00
2019-04-25T00:28:05.047Z,0.00
2019-04-25T00:29:05.024Z,0.00
2019-04-25T00:30:04.987Z,0.00
2019-04-25T00:31:04.950Z,0.00
2019-04-25T00:32:04.920Z,0.00
2019-04-25T00:33:04.885Z,0.00
2019-04-25T00:34:04.855Z,0.00
2019-04-25T00:35:04.817Z,0.00
2019-04-25T00:36:04.786Z,0.00
2019-04-25T00:37:04.751Z,0.00
2019-04-25T00:38:04.717Z,0.00
2019-04-25T00:39:04.683Z,0.00
2019-04-25T00:40:04.652Z,0.00
2019-04-25T00:41:04.618Z,0.00
2019-04-25T00:42:04.577Z,0.00
2019-04-25T00:43:04.548Z,0.00
2019-04-25T00:44:04.518Z,0.00
2019-04-25T00:45:04.481Z,0.00
2019-04-25T00:46:04.456Z,0.00
2019-04-25T00:47:04.411Z,0.00
2019-04-25T00:48:04.483Z,0.00
2019-04-25T00:49:04.362Z,0.00
2019-04-25T00:50:04.314Z,0.00
2019-04-25T00:51:04.282Z,0.00
2019-04-25T00:52:04.253Z,0.00
2019-04-25T00:53:04.218Z,0.00
2019-04-25T00:54:04.178Z,0.00
2019-04-25T00:55:04.143Z,0.00
2019-04-25T00:56:04.109Z,0.00
2019-04-25T00:57:04.077Z,0.00
2019-04-25T00:58:04.033Z,0.00
2019-04-25T00:59:04.017Z,0.00
2019-04-25T01:00:03.998Z,0.00
2019-04-25T01:01:03.940Z,0.00
2019-04-25T01:02:03.918Z,0.00
2019-04-25T01:03:03.877Z,0.00
2019-04-25T01:04:03.833Z,0.00
2019-04-25T01:05:03.807Z,0.00
2019-04-25T01:06:03.926Z,0.00
2019-04-25T01:07:03.741Z,0.00
2019-04-25T01:08:03.712Z,0.00
2019-04-25T01:09:03.678Z,0.00
2019-04-25T01:10:03.645Z,0.00
2019-04-25T01:11:03.611Z,0.00
2019-04-25T01:12:04.061Z,0.00
2019-04-25T01:13:03.534Z,0.00
2019-04-25T01:14:03.505Z,0.00
2019-04-25T01:15:03.472Z,0.00
2019-04-25T01:16:04.072Z,0.00
2019-04-25T01:17:03.404Z,0.00
2019-04-25T01:18:03.363Z,0.00
2019-04-25T01:19:03.570Z,0.00
2019-04-25T01:20:04.187Z,0.00
2019-04-25T01:21:04.477Z,0.00
2019-04-25T01:22:03.842Z,0.00
2019-04-25T01:23:03.799Z,0.00
2019-04-25T01:24:04.281Z,0.00
2019-04-25T01:25:03.840Z,0.00
2019-04-25T01:26:03.354Z,0.00
2019-04-25T01:27:03.344Z,0.00
2019-04-25T01:28:03.266Z,0.00
2019-04-25T01:29:03.675Z,0.00
2019-04-25T01:30:03.990Z,0.00
2019-04-25T01:31:03.847Z,0.00
2019-04-25T01:32:03.262Z,0.00
2019-04-25T01:33:03.506Z,0.00
2019-04-25T01:34:04.346Z,0.00
2019-04-25T01:35:04.002Z,0.00
2019-04-25T01:36:03.442Z,0.00
2019-04-25T01:37:04.166Z,0.00
2019-04-25T01:38:03.671Z,0.00
2019-04-25T01:39:04.220Z,0.00
2019-04-25T01:40:04.138Z,0.00
2019-04-25T01:41:03.348Z,0.00
2019-04-25T01:42:03.584Z,0.00
2019-04-25T01:43:03.726Z,0.00
2019-04-25T01:44:04.415Z,0.00
2019-04-25T01:45:03.967Z,0.00
2019-04-25T01:46:03.399Z,0.00
2019-04-25T01:47:04.094Z,0.00
2019-04-25T01:48:03.496Z,0.00
2019-04-25T01:49:02.317Z,0.00
2019-04-25T01:50:03.832Z,0.00
2019-04-25T01:51:04.006Z,0.00
2019-04-25T01:52:03.520Z,0.00
2019-04-25T01:53:03.423Z,0.00
2019-04-25T01:54:03.985Z,0.00
2019-04-25T01:55:03.491Z,0.00
2019-04-25T01:56:05.899Z,0.00
2019-04-25T01:57:02.051Z,0.00
2019-04-25T01:58:03.751Z,0.00
2019-04-25T01:59:03.766Z,0.00
2019-04-25T02:00:03.821Z,0.00
2019-04-25T02:01:02.657Z,0.00
2019-04-25T02:02:03.795Z,0.00
2019-04-25T02:03:03.682Z,0.00
2019-04-25T02:04:03.258Z,0.00
2019-04-25T02:05:01.770Z,0.00
2019-04-25T02:06:01.735Z,0.00
2019-04-25T02:07:03.340Z,0.00
2019-04-25T02:08:01.667Z,0.00
2019-04-25T02:09:01.648Z,0.00
2019-04-25T02:10:02.135Z,0.00
2019-04-25T02:11:01.581Z,0.00
2019-04-25T02:12:01.532Z,0.00
2019-04-25T02:13:02.474Z,0.00
2019-04-25T02:14:01.467Z,0.00
2019-04-25T02:15:03.921Z,0.00
2019-04-25T02:16:01.398Z,0.00
2019-04-25T02:17:02.314Z,0.00
2019-04-25T02:18:01.853Z,0.00
2019-04-25T02:19:02.410Z,0.00
2019-04-25T02:20:02.039Z,0.00
2019-04-25T02:21:02.318Z,0.00
2019-04-25T02:22:01.958Z,0.00
2019-04-25T02:23:02.053Z,0.00
2019-04-25T02:24:01.128Z,0.00
2019-04-25T02:25:01.096Z,0.00
2019-04-25T02:26:13.895Z,0.00
2019-04-25T02:27:01.022Z,0.00
2019-04-25T02:28:02.475Z,0.00
2019-04-25T02:29:00.955Z,0.00
2019-04-25T02:30:01.085Z,0.00
2019-04-25T02:31:03.797Z,0.00
2019-04-25T02:32:03.239Z,0.00
2019-04-25T02:33:06.118Z,0.00
2019-04-25T02:34:03.093Z,0.00
2019-04-25T02:35:04.476Z,0.00
2019-04-25T02:36:02.612Z,0.00
2019-04-25T02:37:02.983Z,0.00
2019-04-25T02:38:02.897Z,0.00
2019-04-25T02:39:03.279Z,0.00
2019-04-25T02:40:02.406Z,0.00
2019-04-25T02:41:02.304Z,0.00
2019-04-25T02:42:01.954Z,0.00
2019-04-25T02:43:02.000Z,0.00
2019-04-25T02:44:05.506Z,0.00
2019-04-25T02:45:02.358Z,0.00
2019-04-25T02:46:01.570Z,0.00
2019-04-25T02:47:01.068Z,0.00
2019-04-25T02:48:01.425Z,0.00
2019-04-25T02:49:02.644Z,0.00
2019-04-25T02:50:00.830Z,0.00
2019-04-25T02:51:01.167Z,0.00
2019-04-25T02:52:01.207Z,0.00
2019-04-25T02:53:01.281Z,0.00
2019-04-25T02:54:00.108Z,0.00
2019-04-25T02:55:00.763Z,0.00
2019-04-25T02:56:00.043Z,0.00
2019-04-25T02:57:00.067Z,0.00
2019-04-25T02:58:00.387Z,0.00
2019-04-25T02:59:00.315Z,0.00
2019-04-25T03:00:00.193Z,0.00
2019-04-25T03:01:10.735Z,0.00
2019-04-25T03:02:00.720Z,0.00
2019-04-25T03:03:01.021Z,0.00
2019-04-25T03:04:00.843Z,0.00
2019-04-25T03:05:01.113Z,0.00
2019-04-25T03:06:01.278Z,0.00
2019-04-25T03:07:00.626Z,0.00
2019-04-25T03:08:00.342Z,0.00
2019-04-25T03:09:00.313Z,0.00
2019-04-25T03:09:59.624Z,0.00
2019-04-25T03:10:59.852Z,0.00
2019-04-25T03:11:59.955Z,0.00
2019-04-25T03:13:00.277Z,0.00
2019-04-25T03:14:00.543Z,0.00
2019-04-25T03:15:00.150Z,0.00
2019-04-25T03:16:00.595Z,0.00
2019-04-25T03:17:00.401Z,0.00
2019-04-25T03:18:00.184Z,0.00
2019-04-25T03:19:00.291Z,0.00
2019-04-25T03:19:59.875Z,0.00
2019-04-25T03:21:00.925Z,0.00
2019-04-25T03:22:00.173Z,0.00
2019-04-25T03:23:00.057Z,0.00
2019-04-25T03:23:59.935Z,0.00
2019-04-25T03:25:00.273Z,0.00
2019-04-25T03:25:59.224Z,0.00
2019-04-25T03:26:59.411Z,0.00
2019-04-25T03:27:59.596Z,0.00
2019-04-25T03:28:59.663Z,0.00
2019-04-25T03:29:59.711Z,0.00
2019-04-25T03:31:01.419Z,0.00
2019-04-25T03:31:58.811Z,0.00
2019-04-25T03:32:58.780Z,0.00
2019-04-25T03:33:58.747Z,0.00
2019-04-25T03:34:58.699Z,0.00
2019-04-25T03:35:58.680Z,0.00
2019-04-25T03:36:58.635Z,0.00
2019-04-25T03:37:58.600Z,0.00
2019-04-25T03:38:58.567Z,0.00
2019-04-25T03:39:58.548Z,0.00
2019-04-25T03:40:58.504Z,0.00
2019-04-25T03:41:58.458Z,0.00
2019-04-25T03:42:58.428Z,0.00
2019-04-25T03:43:58.396Z,0.00
2019-04-25T03:44:58.366Z,0.00
2019-04-25T03:45:58.326Z,0.00
2019-04-25T03:46:58.291Z,0.00
2019-04-25T03:47:58.252Z,0.00
2019-04-25T03:48:58.223Z,0.00
2019-04-25T03:49:58.196Z,0.00
2019-04-25T03:50:58.158Z,0.00
2019-04-25T03:51:58.117Z,0.00
2019-04-25T03:52:58.096Z,0.00
2019-04-25T03:53:58.051Z,0.00
2019-04-25T03:54:58.021Z,0.00
2019-04-25T03:55:57.981Z,0.00
2019-04-25T03:56:57.959Z,4.00
2019-04-25T03:57:57.907Z,4.00
2019-04-25T03:58:57.878Z,4.00
2019-04-25T03:59:57.853Z,0.00
2019-04-25T04:00:57.823Z,4.00
2019-04-25T04:01:57.774Z,4.00
2019-04-25T04:02:57.761Z,4.00
2019-04-25T04:03:57.704Z,8.00
2019-04-25T04:04:57.670Z,4.00
2019-04-25T04:05:57.636Z,8.00
2019-04-25T04:06:57.604Z,8.00
2019-04-25T04:07:57.564Z,8.00
2019-04-25T04:08:57.547Z,8.00
2019-04-25T04:09:57.504Z,12.00
2019-04-25T04:10:57.467Z,12.00
2019-04-25T04:11:57.439Z,16.00
2019-04-25T04:12:57.402Z,16.00
2019-04-25T04:13:57.372Z,20.00
2019-04-25T04:14:57.332Z,24.00
2019-04-25T04:15:57.299Z,28.00
2019-04-25T04:16:57.267Z,28.00
2019-04-25T04:17:57.257Z,32.00
2019-04-25T04:18:57.203Z,32.00
2019-04-25T04:19:57.170Z,36.00
2019-04-25T04:20:57.124Z,40.00
2019-04-25T04:21:57.090Z,48.00
2019-04-25T04:22:57.058Z,56.00
2019-04-25T04:23:57.230Z,56.00
2019-04-25T04:24:56.998Z,64.00
2019-04-25T04:25:56.950Z,72.00
2019-04-25T04:27:03.721Z,72.00
2019-04-25T04:27:56.888Z,80.00
2019-04-25T04:28:56.855Z,84.00
2019-04-25T04:29:56.825Z,88.00
2019-04-25T04:30:56.789Z,92.00
2019-04-25T04:31:56.753Z,100.00
2019-04-25T04:32:56.710Z,104.00
2019-04-25T04:33:56.680Z,112.00
2019-04-25T04:34:56.648Z,120.00
2019-04-25T04:35:56.615Z,128.00
2019-04-25T04:36:56.573Z,140.00
2019-04-25T04:37:56.552Z,148.00
2019-04-25T04:38:56.519Z,164.00
2019-04-25T04:39:56.479Z,172.00
2019-04-25T04:40:56.442Z,180.00
2019-04-25T04:41:56.404Z,192.00
2019-04-25T04:42:56.374Z,200.00
2019-04-25T04:43:56.339Z,200.00
2019-04-25T04:44:56.305Z,208.00
2019-04-25T04:45:56.276Z,212.00
2019-04-25T04:46:56.240Z,220.00
2019-04-25T04:47:56.205Z,224.00
2019-04-25T04:48:56.165Z,232.00
2019-04-25T04:49:56.144Z,236.00
2019-04-25T04:50:56.110Z,240.00
2019-04-25T04:51:56.061Z,248.00
2019-04-25T04:52:56.034Z,256.00
2019-04-25T04:53:55.999Z,272.00
2019-04-25T04:55:05.385Z,284.00
2019-04-25T04:55:55.931Z,296.00
2019-04-25T04:56:55.905Z,312.00
2019-04-25T04:57:55.863Z,324.00
2019-04-25T04:58:55.822Z,336.00
2019-04-25T04:59:55.786Z,356.00
2019-04-25T05:00:55.755Z,368.00
2019-04-25T05:01:55.728Z,380.00
2019-04-25T05:02:55.682Z,396.00
2019-04-25T05:03:55.656Z,408.00
2019-04-25T05:04:55.625Z,428.00
2019-04-25T05:05:55.590Z,448.00
2019-04-25T05:06:55.552Z,468.00
2019-04-25T05:07:55.518Z,488.00
2019-04-25T05:08:55.511Z,500.00
2019-04-25T05:09:55.462Z,512.00
2019-04-25T05:10:57.333Z,516.00
2019-04-25T05:11:55.388Z,520.00
2019-04-25T05:12:55.343Z,532.00
2019-04-25T05:13:55.317Z,544.00
2019-04-25T05:14:55.277Z,544.00
2019-04-25T05:15:55.257Z,544.00
2019-04-25T05:16:55.218Z,548.00
2019-04-25T05:17:55.197Z,548.00
2019-04-25T05:18:55.420Z,548.00
2019-04-25T05:19:55.128Z,548.00
2019-04-25T05:20:55.081Z,560.00
2019-04-25T05:21:55.044Z,568.00
2019-04-25T05:22:55.257Z,584.00
2019-04-25T05:23:54.973Z,600.00
2019-04-25T05:24:54.947Z,624.00
2019-04-25T05:25:55.766Z,648.00
2019-04-25T05:26:54.874Z,668.00
2019-04-25T05:28:02.936Z,684.00
2019-04-25T05:28:54.996Z,704.00
2019-04-25T05:29:54.780Z,724.00
2019-04-25T05:30:54.739Z,748.00
2019-04-25T05:31:54.708Z,780.00
2019-04-25T05:32:54.668Z,800.00
2019-04-25T05:33:54.643Z,820.00
2019-04-25T05:34:54.612Z,836.00
2019-04-25T05:35:54.578Z,848.00
2019-04-25T05:36:54.542Z,852.00
2019-04-25T05:37:54.512Z,860.00
2019-04-25T05:38:54.475Z,864.00
2019-04-25T05:39:54.433Z,856.00
2019-04-25T05:40:54.407Z,848.00
2019-04-25T05:41:54.379Z,828.00
2019-04-25T05:42:54.352Z,836.00
2019-04-25T05:43:54.307Z,840.00
2019-04-25T05:44:54.267Z,840.00
2019-04-25T05:45:54.243Z,832.00
2019-04-25T05:46:54.202Z,828.00
2019-04-25T05:47:54.181Z,828.00
2019-04-25T05:48:54.127Z,824.00
2019-04-25T05:49:54.204Z,816.00
2019-04-25T05:50:54.070Z,800.00
2019-04-25T05:51:54.028Z,796.00
2019-04-25T05:52:54.845Z,796.00
2019-04-25T05:53:55.181Z,788.00
2019-04-25T05:54:54.097Z,784.00
2019-04-25T05:55:54.135Z,788.00
2019-04-25T05:56:53.870Z,784.00
2019-04-25T05:57:53.844Z,768.00
2019-04-25T05:58:53.801Z,752.00
2019-04-25T05:59:53.803Z,740.00
2019-04-25T06:00:54.252Z,728.00
2019-04-25T06:01:53.847Z,716.00
2019-04-25T06:02:53.668Z,708.00
2019-04-25T06:03:53.693Z,700.00
2019-04-25T06:04:53.640Z,692.00
2019-04-25T06:05:53.565Z,688.00
2019-04-25T06:06:55.241Z,688.00
2019-04-25T06:07:54.282Z,684.00
2019-04-25T06:08:54.181Z,680.00
2019-04-25T06:09:54.414Z,668.00
2019-04-25T06:10:53.858Z,656.00
2019-04-25T06:11:53.463Z,652.00
2019-04-25T06:12:53.692Z,652.00
2019-04-25T06:13:53.340Z,664.00
2019-04-25T06:14:54.589Z,688.00
2019-04-25T06:15:53.393Z,720.00
2019-04-25T06:16:53.612Z,772.00
2019-04-25T06:17:53.352Z,848.00
2019-04-25T06:18:54.803Z,928.00
2019-04-25T06:19:53.444Z,1008.00
2019-04-25T06:20:54.316Z,1068.00
2019-04-25T06:21:53.518Z,1124.00
2019-04-25T06:22:53.453Z,1156.00
2019-04-25T06:23:54.427Z,1184.00
2019-04-25T06:24:54.227Z,1208.00
2019-04-25T06:25:53.810Z,1252.00
2019-04-25T06:26:53.878Z,1292.00
2019-04-25T06:27:58.611Z,1336.00
2019-04-25T06:28:58.995Z,1376.00
2019-04-25T06:29:59.063Z,1408.00
2019-04-25T06:30:54.116Z,1428.00
2019-04-25T06:32:04.257Z,1452.00
2019-04-25T06:32:53.221Z,1480.00
2019-04-25T06:33:53.942Z,1496.00
2019-04-25T06:34:54.151Z,1496.00
2019-04-25T06:35:52.577Z,1504.00
2019-04-25T06:36:53.650Z,1512.00
2019-04-25T06:37:53.675Z,1528.00
2019-04-25T06:38:54.085Z,1512.00
2019-04-25T06:39:53.682Z,1516.00
2019-04-25T06:40:53.566Z,1528.00
2019-04-25T06:41:53.769Z,1528.00
2019-04-25T06:42:53.598Z,1484.00
2019-04-25T06:43:52.321Z,1464.00
2019-04-25T06:44:53.478Z,1436.00
2019-04-25T06:45:55.205Z,1436.00
2019-04-25T06:46:53.532Z,1420.00
2019-04-25T06:47:52.186Z,1396.00
2019-04-25T06:48:53.429Z,1380.00
2019-04-25T06:49:53.245Z,1336.00
2019-04-25T06:50:53.628Z,1272.00
2019-04-25T06:51:52.069Z,1248.00
2019-04-25T06:52:53.636Z,1216.00
2019-04-25T06:53:53.422Z,1176.00
2019-04-25T06:54:53.276Z,1152.00
2019-04-25T06:55:53.559Z,1132.00
2019-04-25T06:56:53.431Z,1144.00
2019-04-25T06:57:51.873Z,1144.00
2019-04-25T06:58:53.281Z,1164.00
2019-04-25T06:59:53.232Z,1172.00
2019-04-25T07:00:58.782Z,1176.00
2019-04-25T07:01:51.732Z,1184.00
2019-04-25T07:02:53.151Z,1196.00
2019-04-25T07:03:51.668Z,1184.00
2019-04-25T07:04:51.730Z,1168.00
2019-04-25T07:05:51.603Z,1180.00
2019-04-25T07:06:51.577Z,1188.00
2019-04-25T07:07:53.378Z,1152.00
2019-04-25T07:08:51.508Z,1124.00
2019-04-25T07:09:53.271Z,1064.00
2019-04-25T07:10:51.449Z,1020.00
2019-04-25T07:11:51.399Z,968.00
2019-04-25T07:12:51.379Z,932.00
2019-04-25T07:13:51.346Z,908.00
2019-04-25T07:14:51.313Z,880.00
2019-04-25T07:15:51.286Z,844.00
2019-04-25T07:16:51.254Z,824.00
2019-04-25T07:17:51.219Z,820.00
2019-04-25T07:18:51.213Z,836.00
2019-04-25T07:19:51.154Z,888.00
2019-04-25T07:20:51.120Z,932.00
2019-04-25T07:21:51.092Z,932.00
2019-04-25T07:22:51.063Z,872.00
2019-04-25T07:23:51.029Z,824.00
2019-04-25T07:24:50.993Z,780.00
2019-04-25T07:25:50.965Z,744.00
2019-04-25T07:26:50.936Z,716.00
2019-04-25T07:27:50.904Z,712.00
2019-04-25T07:28:50.865Z,784.00
2019-04-25T07:29:50.834Z,992.00
2019-04-25T07:30:52.667Z,1320.00
2019-04-25T07:31:50.776Z,1564.00
2019-04-25T07:32:50.745Z,1600.00
2019-04-25T07:33:50.736Z,1584.00
2019-04-25T07:34:50.685Z,1596.00
2019-04-25T07:35:50.646Z,1692.00
2019-04-25T07:36:50.612Z,1656.00
2019-04-25T07:37:50.582Z,1560.00
2019-04-25T07:38:50.549Z,1480.00
2019-04-25T07:39:50.521Z,1396.00
2019-04-25T07:40:50.482Z,1364.00
2019-04-25T07:41:50.451Z,1388.00
2019-04-25T07:42:50.430Z,1492.00
2019-04-25T07:43:50.389Z,1524.00
2019-04-25T07:44:52.972Z,1636.00
2019-04-25T07:45:50.371Z,1848.00
2019-04-25T07:46:50.301Z,1988.00
2019-04-25T07:47:50.333Z,2008.00
2019-04-25T07:48:50.230Z,1872.00
2019-04-25T07:49:50.198Z,1872.00
2019-04-25T07:50:50.172Z,1892.00
2019-04-25T07:51:50.145Z,2016.00
2019-04-25T07:52:50.123Z,1884.00
2019-04-25T07:53:50.077Z,1648.00
2019-04-25T07:54:50.047Z,1392.00
2019-04-25T07:55:50.007Z,1248.00
2019-04-25T07:56:49.987Z,1184.00
2019-04-25T07:57:49.951Z,1204.00
2019-04-25T07:58:52.589Z,1236.00
2019-04-25T07:59:51.635Z,1292.00
2019-04-25T08:00:49.861Z,1464.00
2019-04-25T08:01:49.831Z,1696.00
2019-04-25T08:02:49.788Z,1948.00
2019-04-25T08:03:49.768Z,2100.00
2019-04-25T08:04:49.728Z,2172.00
2019-04-25T08:05:49.700Z,2260.00
2019-04-25T08:06:49.665Z,2348.00
2019-04-25T08:07:49.637Z,2420.00
2019-04-25T08:08:49.603Z,2392.00
2019-04-25T08:09:49.575Z,2348.00
2019-04-25T08:10:49.539Z,2272.00
2019-04-25T08:11:49.527Z,2172.00
2019-04-25T08:12:49.477Z,2060.00
2019-04-25T08:13:49.442Z,1988.00
2019-04-25T08:14:49.413Z,1996.00
2019-04-25T08:15:49.387Z,2016.00
2019-04-25T08:16:49.349Z,1944.00
2019-04-25T08:17:49.318Z,1900.00
2019-04-25T08:18:49.319Z,1860.00
2019-04-25T08:19:49.261Z,1832.00
2019-04-25T08:20:49.226Z,1812.00
2019-04-25T08:21:49.199Z,1808.00
2019-04-25T08:22:56.580Z,1904.00
2019-04-25T08:23:49.143Z,2068.00
2019-04-25T08:24:49.101Z,2360.00
2019-04-25T08:25:49.083Z,2580.00
2019-04-25T08:26:49.047Z,2784.00
2019-04-25T08:27:49.014Z,2872.00
2019-04-25T08:28:55.123Z,3036.00
2019-04-25T08:29:48.944Z,3088.00
2019-04-25T08:30:48.934Z,3088.00
2019-04-25T08:31:48.893Z,3116.00
2019-04-25T08:32:48.862Z,3192.00
2019-04-25T08:33:48.829Z,3132.00
2019-04-25T08:34:48.794Z,3220.00
2019-04-25T08:36:03.535Z,3008.00
2019-04-25T08:36:48.734Z,2640.00
2019-04-25T08:37:48.703Z,2544.00
2019-04-25T08:38:48.674Z,2512.00
2019-04-25T08:39:48.638Z,2724.00
2019-04-25T08:40:48.632Z,2944.00
2019-04-25T08:41:48.583Z,3156.00
2019-04-25T08:42:48.543Z,3148.00
2019-04-25T08:43:48.515Z,2904.00
2019-04-25T08:44:48.494Z,2412.00
2019-04-25T08:45:48.455Z,2236.00
2019-04-25T08:46:48.887Z,1924.00
2019-04-25T08:47:48.398Z,1748.00
2019-04-25T08:48:48.365Z,1672.00
2019-04-25T08:49:49.529Z,1920.00
2019-04-25T08:50:48.305Z,2084.00
2019-04-25T08:51:48.274Z,1976.00
2019-04-25T08:52:48.270Z,2148.00
2019-04-25T08:53:48.215Z,2380.00
2019-04-25T08:54:48.197Z,2332.00
2019-04-25T08:55:48.149Z,2064.00
2019-04-25T08:56:48.123Z,1876.00
2019-04-25T08:57:48.096Z,1668.00
2019-04-25T08:58:48.079Z,1548.00
2019-04-25T08:59:52.318Z,1536.00
2019-04-25T09:00:58.237Z,1540.00
2019-04-25T09:01:47.970Z,1564.00
2019-04-25T09:02:47.940Z,1748.00
2019-04-25T09:03:47.912Z,2036.00
2019-04-25T09:04:47.885Z,2444.00
2019-04-25T09:05:47.916Z,2804.00
2019-04-25T09:06:47.824Z,2820.00
2019-04-25T09:07:47.793Z,2700.00
2019-04-25T09:08:47.771Z,2452.00
2019-04-25T09:09:47.739Z,2300.00
2019-04-25T09:10:47.706Z,2468.00
2019-04-25T09:11:47.675Z,2844.00
2019-04-25T09:12:47.636Z,2968.00
2019-04-25T09:13:47.611Z,2864.00
2019-04-25T09:14:47.599Z,2588.00
2019-04-25T09:15:47.566Z,2436.00
2019-04-25T09:16:47.526Z,2344.00
2019-04-25T09:17:47.497Z,2404.00
2019-04-25T09:18:47.457Z,2664.00
2019-04-25T09:19:47.428Z,3088.00
2019-04-25T09:20:47.445Z,3064.00
2019-04-25T09:21:49.529Z,2824.00
2019-04-25T09:22:47.360Z,2496.00
2019-04-25T09:23:47.312Z,2392.00
2019-04-25T09:24:47.282Z,2436.00
2019-04-25T09:25:47.256Z,2576.00
2019-04-25T09:26:47.222Z,2684.00
2019-04-25T09:27:47.211Z,2740.00
2019-04-25T09:28:47.176Z,2656.00
2019-04-25T09:29:47.485Z,2512.00
2019-04-25T09:30:47.151Z,2420.00
2019-04-25T09:31:47.080Z,2456.00
2019-04-25T09:32:47.850Z,2416.00
2019-04-25T09:33:47.021Z,2344.00
2019-04-25T09:34:46.991Z,2328.00
2019-04-25T09:35:46.970Z,2384.00
2019-04-25T09:36:46.933Z,2440.00
2019-04-25T09:37:46.898Z,2600.00
2019-04-25T09:38:48.458Z,2956.00
2019-04-25T09:39:46.846Z,3260.00
2019-04-25T09:40:46.823Z,3476.00
2019-04-25T09:41:46.788Z,3724.00
2019-04-25T09:42:46.760Z,4000.00
2019-04-25T09:43:46.910Z,4020.00
2019-04-25T09:44:46.712Z,3796.00
2019-04-25T09:45:46.671Z,3696.00
2019-04-25T09:46:47.740Z,3692.00
2019-04-25T09:47:46.608Z,3816.00
2019-04-25T09:48:46.824Z,3420.00
2019-04-25T09:49:46.562Z,3144.00
2019-04-25T09:50:46.528Z,2988.00
2019-04-25T09:51:47.010Z,2976.00
2019-04-25T09:52:47.035Z,2896.00
2019-04-25T09:53:50.940Z,2856.00
2019-04-25T09:54:46.419Z,2828.00
2019-04-25T09:55:47.229Z,2776.00
2019-04-25T09:56:47.185Z,2896.00
2019-04-25T09:57:46.318Z,2928.00
2019-04-25T09:58:48.569Z,2948.00
2019-04-25T09:59:46.281Z,2864.00
2019-04-25T10:00:46.227Z,2604.00
2019-04-25T10:01:46.216Z,2692.00
2019-04-25T10:02:46.980Z,2712.00
2019-04-25T10:03:46.150Z,2708.00
2019-04-25T10:04:46.378Z,2612.00
2019-04-25T10:05:46.862Z,2532.00
2019-04-25T10:06:46.117Z,2536.00
2019-04-25T10:07:47.675Z,2440.00
2019-04-25T10:08:46.327Z,2268.00
2019-04-25T10:09:46.234Z,2228.00
2019-04-25T10:10:46.707Z,2260.00
2019-04-25T10:11:46.563Z,2312.00
2019-04-25T10:12:45.885Z,2356.00
2019-04-25T10:13:46.549Z,2448.00
2019-04-25T10:14:47.918Z,2468.00
2019-04-25T10:15:45.798Z,2432.00
2019-04-25T10:16:45.778Z,2212.00
2019-04-25T10:17:46.253Z,2016.00
2019-04-25T10:18:45.917Z,1892.00
2019-04-25T10:19:45.684Z,1868.00
2019-04-25T10:20:46.309Z,1868.00
2019-04-25T10:21:45.626Z,1880.00
2019-04-25T10:22:46.550Z,1928.00
2019-04-25T10:23:46.733Z,1844.00
2019-04-25T10:24:58.428Z,1668.00
2019-04-25T10:25:46.479Z,1624.00
2019-04-25T10:26:46.360Z,1668.00
2019-04-25T10:27:48.857Z,1712.00
2019-04-25T10:28:45.432Z,1748.00
2019-04-25T10:29:51.618Z,1784.00
2019-04-25T10:30:45.379Z,1772.00
2019-04-25T10:31:45.344Z,1684.00
2019-04-25T10:32:46.230Z,1624.00
2019-04-25T10:33:45.815Z,1584.00
2019-04-25T10:34:46.177Z,1560.00
2019-04-25T10:35:52.077Z,1680.00
2019-04-25T10:36:45.456Z,2020.00
2019-04-25T10:37:46.224Z,2608.00
2019-04-25T10:39:00.510Z,2856.00
2019-04-25T10:39:45.997Z,2860.00
2019-04-25T10:40:46.134Z,2712.00
2019-04-25T10:41:46.692Z,2756.00
2019-04-25T10:42:48.097Z,3228.00
2019-04-25T10:43:45.956Z,3240.00
2019-04-25T10:44:47.002Z,3148.00
2019-04-25T10:45:46.345Z,2964.00
2019-04-25T10:46:46.850Z,2648.00
2019-04-25T10:47:45.255Z,2512.00
2019-04-25T10:48:45.946Z,2312.00
2019-04-25T10:49:45.870Z,2156.00
2019-04-25T10:50:45.939Z,1976.00
2019-04-25T10:51:45.798Z,1876.00
2019-04-25T10:52:46.181Z,1924.00
2019-04-25T10:53:45.966Z,1896.00
2019-04-25T10:54:45.774Z,1932.00
2019-04-25T10:55:45.497Z,2092.00
2019-04-25T10:56:46.088Z,2128.00
2019-04-25T10:57:45.494Z,1936.00
2019-04-25T10:58:46.376Z,1796.00
2019-04-25T10:59:55.237Z,1752.00
2019-04-25T11:00:46.256Z,1604.00
2019-04-25T11:01:46.026Z,1512.00
2019-04-25T11:02:45.483Z,1648.00
2019-04-25T11:03:45.479Z,2032.00
2019-04-25T11:04:47.178Z,3160.00
2019-04-25T11:05:45.165Z,3556.00
2019-04-25T11:06:45.531Z,3344.00
2019-04-25T11:07:44.533Z,3712.00
2019-04-25T11:08:44.928Z,5136.00
2019-04-25T11:09:45.554Z,3700.00
2019-04-25T11:10:46.989Z,3832.00
2019-04-25T11:11:44.206Z,4872.00
2019-04-25T11:12:44.553Z,4536.00
2019-04-25T11:13:45.203Z,4728.00
2019-04-25T11:14:44.360Z,4528.00
2019-04-25T11:15:44.897Z,4488.00
2019-04-25T11:16:45.533Z,4312.00
2019-04-25T11:17:45.798Z,5220.00
2019-04-25T11:18:45.045Z,7592.00
2019-04-25T11:19:44.499Z,4636.00
2019-04-25T11:20:44.623Z,7600.00
2019-04-25T11:21:45.321Z,6840.00
2019-04-25T11:22:44.844Z,9848.00
2019-04-25T11:23:44.991Z,7928.00
2019-04-25T11:24:43.868Z,8468.00
2019-04-25T11:25:45.248Z,7404.00
2019-04-25T11:26:47.191Z,6896.00
2019-04-25T11:27:46.681Z,9944.00
2019-04-25T11:28:45.287Z,10312.00
2019-04-25T11:29:45.045Z,9996.00
2019-04-25T11:30:45.344Z,9280.00
2019-04-25T11:31:44.879Z,9884.00
2019-04-25T11:32:45.099Z,9204.00
2019-04-25T11:33:43.985Z,4188.00
2019-04-25T11:34:46.101Z,5580.00
2019-04-25T11:35:46.468Z,8556.00
2019-04-25T11:36:44.003Z,9184.00
2019-04-25T11:37:43.513Z,8756.00
2019-04-25T11:38:43.575Z,8616.00
2019-04-25T11:39:45.047Z,9316.00
2019-04-25T11:40:46.583Z,10848.00
2019-04-25T11:41:46.103Z,7324.00
2019-04-25T11:42:45.913Z,7532.00
2019-04-25T11:43:45.379Z,5132.00
2019-04-25T11:44:45.545Z,8252.00
2019-04-25T11:45:43.310Z,6452.00
2019-04-25T11:46:44.479Z,4912.00
2019-04-25T11:47:45.996Z,5712.00
2019-04-25T11:48:45.043Z,5476.00
2019-04-25T11:49:45.391Z,5240.00
2019-04-25T11:50:48.167Z,5452.00
2019-04-25T11:51:44.738Z,4900.00
2019-04-25T11:52:43.712Z,5936.00
2019-04-25T11:53:45.042Z,9396.00
2019-04-25T11:54:44.627Z,4688.00
2019-04-25T11:55:43.622Z,4272.00
2019-04-25T11:56:45.661Z,5336.00
2019-04-25T11:57:47.379Z,8920.00
2019-04-25T11:58:45.559Z,6844.00
2019-04-25T11:59:45.198Z,6864.00
2019-04-25T12:00:43.498Z,6060.00
2019-04-25T12:01:45.377Z,8400.00
2019-04-25T12:02:43.098Z,9500.00
2019-04-25T12:03:46.248Z,7672.00
2019-04-25T12:04:45.491Z,5244.00
2019-04-25T12:05:45.449Z,6432.00
2019-04-25T12:06:45.538Z,6516.00
2019-04-25T12:07:44.507Z,6936.00
2019-04-25T12:08:44.085Z,8520.00
2019-04-25T12:09:45.460Z,5072.00
2019-04-25T12:10:45.410Z,5272.00
2019-04-25T12:11:44.575Z,7972.00
2019-04-25T12:12:43.315Z,9200.00
2019-04-25T12:13:44.784Z,8336.00
2019-04-25T12:14:44.194Z,6432.00
2019-04-25T12:15:43.407Z,5972.00
2019-04-25T12:16:46.111Z,8100.00
2019-04-25T12:17:42.527Z,9312.00
2019-04-25T12:18:45.207Z,9140.00
2019-04-25T12:19:42.475Z,6588.00
2019-04-25T12:20:44.112Z,4804.00
2019-04-25T12:21:42.428Z,4968.00
2019-04-25T12:22:44.510Z,5272.00
2019-04-25T12:23:45.034Z,9468.00
2019-04-25T12:24:44.506Z,8972.00
2019-04-25T12:25:42.333Z,8088.00
2019-04-25T12:26:45.110Z,9288.00
2019-04-25T12:27:42.283Z,9396.00
2019-04-25T12:28:42.251Z,5720.00
2019-04-25T12:29:43.907Z,4812.00
2019-04-25T12:30:43.714Z,8824.00
2019-04-25T12:31:42.178Z,9440.00
2019-04-25T12:32:42.157Z,9524.00